Time,TemperatureF,DewpointF,PressureIn,WindDirection,WindDirectionDegrees,WindSpeedMPH,WindSpeedGustMPH,Humidity,HourlyPrecipIn,Conditions,Clouds,dailyrainin,SolarRadiationWatts/m^2,SoftwareType,DateUTC
2013-06-19 00:04:00,62.1,60.9,29.84,NNE,16,5.0,12.0,96,0.00,,,0.58,0,Wunderground v.1.15,2013-06-19 04:04:00,
2013-06-19 00:09:00,62.2,61.0,29.84,NNE,28,4.0,4.0,96,0.00,,,0.58,0,Wunderground v.1.15,2013-06-19 04:09:00,
2013-06-19 00:14:00,62.2,61.0,29.83,North,9,4.0,12.0,96,0.00,,,0.58,0,Wunderground v.1.15,2013-06-19 04:14:00,
2013-06-19 00:19:00,62.1,60.9,29.84,NNW,344,4.0,12.0,96,0.00,,,0.58,0,Wunderground v.1.15,2013-06-19 04:19:00,
2013-06-19 00:24:00,62.1,60.9,29.83,NE,51,5.0,12.0,96,0.00,,,0.58,0,Wunderground v.1.15,2013-06-19 04:24:00,
2013-06-19 00:34:00,62.0,60.8,29.85,NNW,342,4.0,12.0,96,0.00,,,0.58,0,Wunderground v.1.15,2013-06-19 04:34:00,
2013-06-19 00:39:00,62.0,60.8,29.84,NNW,338,5.0,5.0,96,0.00,,,0.58,0,Wunderground v.1.15,2013-06-19 04:39:00,
2013-06-19 00:44:00,61.9,60.7,29.84,WNW,295,5.0,6.0,96,0.00,,,0.58,0,Wunderground v.1.15,2013-06-19 04:44:00,
2013-06-19 00:54:00,61.6,60.4,29.84,North,355,6.0,13.0,96,0.00,,,0.58,0,Wunderground v.1.15,2013-06-19 04:54:00,
2013-06-19 01:04:00,61.7,60.5,29.84,NW,304,4.0,5.0,96,0.00,,,0.58,0,Wunderground v.1.15,2013-06-19 05:04:00,
2013-06-19 01:09:00,61.6,60.4,29.85,NW,320,4.0,13.0,96,0.00,,,0.58,0,Wunderground v.1.15,2013-06-19 05:09:00,
2013-06-19 01:19:00,61.6,60.4,29.85,NW,313,4.0,13.0,96,0.00,,,0.58,0,Wunderground v.1.15,2013-06-19 05:19:00,
2013-06-19 01:29:00,61.2,59.8,29.85,NW,319,5.0,11.0,95,0.00,,,0.58,0,Wunderground v.1.15,2013-06-19 05:29:00,
2013-06-19 01:39:00,61.1,59.7,29.85,NNW,333,5.0,5.0,95,0.00,,,0.58,0,Wunderground v.1.15,2013-06-19 05:39:00,
2013-06-19 01:49:00,61.2,60.1,29.85,North,355,4.0,11.0,96,0.00,,,0.58,0,Wunderground v.1.15,2013-06-19 05:49:00,
2013-06-19 01:59:00,61.3,59.9,29.85,North,5,4.0,11.0,95,0.00,,,0.58,0,Wunderground v.1.15,2013-06-19 05:59:00,
2013-06-19 02:09:00,61.4,60.0,29.85,NW,309,4.0,11.0,95,0.00,,,0.58,0,Wunderground v.1.15,2013-06-19 06:09:00,
2013-06-19 02:19:00,61.4,60.0,29.84,NNE,15,5.0,5.0,95,0.00,,,0.00,0,Wunderground v.1.15,2013-06-19 06:19:00,
2013-06-19 02:29:00,61.4,60.0,29.84,North,355,5.0,12.0,95,0.00,,,0.00,0,Wunderground v.1.15,2013-06-19 06:29:00,
2013-06-19 02:34:00,61.4,60.0,29.84,NNW,331,6.0,12.0,95,0.00,,,0.00,0,Wunderground v.1.15,2013-06-19 06:34:00,
2013-06-19 02:44:00,61.2,59.5,29.84,North,349,7.0,12.0,94,0.00,,,0.00,0,Wunderground v.1.15,2013-06-19 06:44:00,
2013-06-19 02:54:00,61.1,59.4,29.85,North,350,6.0,20.0,94,0.00,,,0.00,0,Wunderground v.1.15,2013-06-19 06:54:00,
2013-06-19 02:59:00,61.2,59.5,29.85,North,349,6.0,6.0,94,0.00,,,0.00,0,Wunderground v.1.15,2013-06-19 06:59:00,
2013-06-19 03:09:00,61.1,59.4,29.85,NW,319,5.0,20.0,94,0.00,,,0.00,0,Wunderground v.1.15,2013-06-19 07:09:00,
2013-06-19 03:14:00,61.1,59.4,29.85,NNW,340,5.0,20.0,94,0.00,,,0.00,0,Wunderground v.1.15,2013-06-19 07:14:00,
2013-06-19 03:24:00,61.0,59.3,29.86,NNW,341,5.0,20.0,94,0.00,,,0.00,0,Wunderground v.1.15,2013-06-19 07:24:00,
2013-06-19 03:29:00,61.0,59.3,29.86,NNW,329,5.0,5.0,94,0.00,,,0.00,0,Wunderground v.1.15,2013-06-19 07:29:00,
2013-06-19 03:39:00,61.0,59.3,29.85,North,5,5.0,5.0,94,0.00,,,0.00,0,Wunderground v.1.15,2013-06-19 07:39:00,
2013-06-19 03:49:00,61.1,59.4,29.85,North,355,5.0,5.0,94,0.00,,,0.00,0,Wunderground v.1.15,2013-06-19 07:49:00,
2013-06-19 03:59:00,61.1,59.4,29.85,NNW,331,6.0,6.0,94,0.00,,,0.00,0,Wunderground v.1.15,2013-06-19 07:59:00,
2013-06-19 04:09:00,61.1,59.4,29.86,WNW,302,4.0,12.0,94,0.00,,,0.00,0,Wunderground v.1.15,2013-06-19 08:09:00,
2013-06-19 04:19:00,61.0,59.0,29.85,North,355,5.0,12.0,93,0.00,,,0.00,0,Wunderground v.1.15,2013-06-19 08:19:00,
2013-06-19 04:29:00,61.0,59.0,29.85,NW,311,5.0,13.0,93,0.00,,,0.00,0,Wunderground v.1.15,2013-06-19 08:29:00,
2013-06-19 04:39:00,60.9,58.9,29.85,WNW,298,5.0,13.0,93,0.00,,,0.00,0,Wunderground v.1.15,2013-06-19 08:39:00,
2013-06-19 04:49:00,60.9,58.9,29.86,NNW,342,5.0,13.0,93,0.00,,,0.00,0,Wunderground v.1.15,2013-06-19 08:49:00,
2013-06-19 04:59:00,60.9,58.9,29.86,NW,318,4.0,13.0,93,0.00,,,0.00,0,Wunderground v.1.15,2013-06-19 08:59:00,
2013-06-19 05:09:00,60.8,58.8,29.87,NW,314,4.0,13.0,93,0.00,,,0.00,0,Wunderground v.1.15,2013-06-19 09:09:00,
2013-06-19 05:19:00,60.7,58.4,29.87,NNW,336,4.0,13.0,92,0.00,,,0.00,0,Wunderground v.1.15,2013-06-19 09:19:00,
2013-06-19 05:29:00,60.5,58.2,29.87,NW,305,4.0,4.0,92,0.00,,,0.00,9,Wunderground v.1.15,2013-06-19 09:29:00,
2013-06-19 05:39:00,60.3,58.0,29.87,NW,319,4.0,10.0,92,0.00,,,0.00,16,Wunderground v.1.15,2013-06-19 09:39:00,
2013-06-19 05:49:00,60.2,57.9,29.87,WNW,296,5.0,10.0,92,0.00,,,0.00,21,Wunderground v.1.15,2013-06-19 09:49:00,
2013-06-19 05:59:00,60.1,57.8,29.88,NW,317,5.0,11.0,92,0.00,,,0.00,46,Wunderground v.1.15,2013-06-19 09:59:00,
2013-06-19 06:09:00,60.0,57.7,29.88,NW,315,5.0,11.0,92,0.00,,,0.00,67,Wunderground v.1.15,2013-06-19 10:09:00,
2013-06-19 06:19:00,60.0,57.4,29.89,North,350,6.0,11.0,91,0.00,,,0.00,104,Wunderground v.1.15,2013-06-19 10:19:00,
2013-06-19 06:29:00,60.1,57.5,29.89,North,355,5.0,5.0,91,0.00,,,0.00,135,Wunderground v.1.15,2013-06-19 10:29:00,
2013-06-19 06:39:00,60.3,57.0,29.90,WNW,290,4.0,14.0,89,0.00,,,0.00,171,Wunderground v.1.15,2013-06-19 10:39:00,
2013-06-19 06:49:00,60.5,56.9,29.91,WNW,298,6.0,6.0,88,0.00,,,0.00,216,Wunderground v.1.15,2013-06-19 10:49:00,
2013-06-19 06:59:00,60.9,56.7,29.91,NE,36,5.0,5.0,86,0.00,,,0.00,257,Wunderground v.1.15,2013-06-19 10:59:00,
2013-06-19 07:09:00,61.3,56.4,29.92,NNW,337,5.0,5.0,84,0.00,,,0.00,253,Wunderground v.1.15,2013-06-19 11:09:00,
2013-06-19 07:19:00,61.7,56.1,29.92,WNW,302,6.0,12.0,82,0.00,,,0.00,357,Wunderground v.1.15,2013-06-19 11:19:00,
2013-06-19 07:29:00,62.2,55.6,29.93,NNW,342,7.0,7.0,79,0.00,,,0.00,232,Wunderground v.1.15,2013-06-19 11:29:00,
2013-06-19 07:39:00,62.1,55.9,29.93,NNE,12,5.0,13.0,80,0.00,,,0.00,181,Wunderground v.1.15,2013-06-19 11:39:00,
2013-06-19 07:49:00,62.1,56.5,29.94,North,360,4.0,13.0,82,0.00,,,0.00,429,Wunderground v.1.15,2013-06-19 11:49:00,
2013-06-19 07:59:00,62.2,56.6,29.94,NE,42,5.0,5.0,82,0.00,,,0.00,232,Wunderground v.1.15,2013-06-19 11:59:00,
2013-06-19 08:09:00,62.0,56.8,29.95,North,360,6.0,13.0,83,0.00,,,0.00,292,Wunderground v.1.15,2013-06-19 12:09:00,
2013-06-19 08:19:00,62.4,56.8,29.95,North,355,6.0,6.0,82,0.00,,,0.00,469,Wunderground v.1.15,2013-06-19 12:19:00,
2013-06-19 08:29:00,63.6,58.0,29.96,NNW,329,5.0,13.0,82,0.00,,,0.00,480,Wunderground v.1.15,2013-06-19 12:29:00,
2013-06-19 08:39:00,63.8,57.5,29.96,WNW,290,5.0,13.0,80,0.00,,,0.00,418,Wunderground v.1.15,2013-06-19 12:39:00,
2013-06-19 08:48:00,63.6,57.3,29.97,NNW,338,6.0,6.0,80,0.00,,,0.00,446,Wunderground v.1.15,2013-06-19 12:48:00,
2013-06-19 08:54:00,64.1,57.8,29.97,NE,35,6.0,16.0,80,0.00,,,0.00,499,Wunderground v.1.15,2013-06-19 12:54:00,
2013-06-19 09:03:00,64.4,57.7,29.97,NW,315,6.0,16.0,79,0.00,,,0.00,476,Wunderground v.1.15,2013-06-19 13:03:00,
2013-06-19 09:14:00,64.3,57.6,29.97,WNW,288,7.0,8.0,79,0.00,,,0.00,598,Wunderground v.1.15,2013-06-19 13:14:00,
2013-06-19 09:24:00,65.3,58.3,29.97,NE,52,6.0,13.0,78,0.00,,,0.00,664,Wunderground v.1.15,2013-06-19 13:24:00,
2013-06-19 09:29:00,65.3,57.5,29.98,NNW,345,6.0,13.0,76,0.00,,,0.00,501,Wunderground v.1.15,2013-06-19 13:29:00,
2013-06-19 09:39:00,65.8,58.0,29.98,NW,314,6.0,6.0,76,0.00,,,0.00,687,Wunderground v.1.15,2013-06-19 13:39:00,
2013-06-19 09:48:00,66.7,58.1,29.98,NE,51,5.0,5.0,74,0.00,,,0.00,761,Wunderground v.1.15,2013-06-19 13:48:00,
2013-06-19 09:54:00,66.9,57.2,29.98,NNE,32,6.0,8.0,71,0.00,,,0.00,591,Wunderground v.1.15,2013-06-19 13:54:00,
2013-06-19 10:04:00,68.4,57.8,29.99,West,273,5.0,6.0,69,0.00,,,0.00,754,Wunderground v.1.15,2013-06-19 14:04:00,
2013-06-19 10:13:00,69.4,58.0,29.99,ESE,116,5.0,14.0,67,0.00,,,0.00,737,Wunderground v.1.15,2013-06-19 14:13:00,
2013-06-19 10:24:00,69.2,57.8,29.99,NW,311,5.0,14.0,67,0.00,,,0.00,805,Wunderground v.1.15,2013-06-19 14:24:00,
2013-06-19 10:33:00,69.1,57.3,30.00,North,349,5.0,5.0,66,0.00,,,0.00,858,Wunderground v.1.15,2013-06-19 14:33:00,
2013-06-19 10:39:00,69.5,57.2,29.99,NNW,343,7.0,13.0,65,0.00,,,0.00,889,Wunderground v.1.15,2013-06-19 14:39:00,
2013-06-19 10:44:00,69.8,57.9,29.99,NE,49,6.0,13.0,66,0.00,,,0.00,902,Wunderground v.1.15,2013-06-19 14:44:00,
2013-06-19 10:54:00,70.6,57.4,29.99,NNE,15,5.0,8.0,63,0.00,,,0.00,914,Wunderground v.1.15,2013-06-19 14:54:00,
2013-06-19 11:03:00,69.9,56.7,29.99,NW,315,7.0,14.0,63,0.00,,,0.00,821,Wunderground v.1.15,2013-06-19 15:03:00,
2013-06-19 11:09:00,69.6,56.9,30.00,NNW,343,7.0,14.0,64,0.00,,,0.00,940,Wunderground v.1.15,2013-06-19 15:09:00,
2013-06-19 11:18:00,71.0,56.9,30.00,North,360,6.0,6.0,61,0.00,,,0.00,928,Wunderground v.1.15,2013-06-19 15:18:00,
2013-06-19 11:29:00,71.5,56.9,30.00,North,5,6.0,14.0,60,0.00,,,0.00,937,Wunderground v.1.15,2013-06-19 15:29:00,
2013-06-19 11:39:00,71.0,56.9,30.00,NNE,14,7.0,7.0,61,0.00,,,0.00,946,Wunderground v.1.15,2013-06-19 15:39:00,
2013-06-19 11:48:00,71.7,56.1,30.00,NW,324,7.0,7.0,58,0.00,,,0.00,958,Wunderground v.1.15,2013-06-19 15:48:00,
2013-06-19 11:54:00,72.0,56.4,30.00,NNW,342,6.0,14.0,58,0.00,,,0.00,960,Wunderground v.1.15,2013-06-19 15:54:00,
2013-06-19 12:04:00,72.9,55.8,30.00,NW,323,5.0,14.0,55,0.00,,,0.00,976,Wunderground v.1.15,2013-06-19 16:04:00,
2013-06-19 12:14:00,72.8,54.7,30.00,North,355,6.0,11.0,53,0.00,,,0.00,981,Wunderground v.1.15,2013-06-19 16:14:00,
2013-06-19 12:24:00,73.8,55.1,30.00,North,355,5.0,14.0,52,0.00,,,0.00,984,Wunderground v.1.15,2013-06-19 16:24:00,
2013-06-19 12:33:00,73.9,55.2,30.00,NNW,329,6.0,14.0,52,0.00,,,0.00,986,Wunderground v.1.15,2013-06-19 16:33:00,
2013-06-19 12:44:00,74.3,55.5,30.00,NNW,344,5.0,14.0,52,0.00,,,0.00,993,Wunderground v.1.15,2013-06-19 16:44:00,
2013-06-19 12:54:00,75.2,55.8,30.00,NNW,336,5.0,7.0,51,0.00,,,0.00,1000,Wunderground v.1.15,2013-06-19 16:54:00,
2013-06-19 12:59:00,74.6,54.2,30.01,North,355,5.0,14.0,49,0.00,,,0.00,995,Wunderground v.1.15,2013-06-19 16:59:00,
2013-06-19 13:04:00,74.9,54.4,30.01,North,355,6.0,14.0,49,0.00,,,0.00,997,Wunderground v.1.15,2013-06-19 17:04:00,
2013-06-19 13:14:00,74.5,54.1,30.01,NNE,15,5.0,11.0,49,0.00,,,0.00,1004,Wunderground v.1.15,2013-06-19 17:14:00,
2013-06-19 13:23:00,75.5,53.3,30.01,North,349,6.0,6.0,46,0.00,,,0.00,988,Wunderground v.1.15,2013-06-19 17:23:00,
2013-06-19 13:29:00,76.1,53.8,30.01,West,273,5.0,14.0,46,0.00,,,0.00,990,Wunderground v.1.15,2013-06-19 17:29:00,
2013-06-19 13:39:00,76.4,54.1,30.01,NW,306,4.0,14.0,46,0.00,,,0.00,1025,Wunderground v.1.15,2013-06-19 17:39:00,
2013-06-19 13:48:00,75.3,51.3,30.01,NNE,21,5.0,5.0,43,0.00,,,0.00,1042,Wunderground v.1.15,2013-06-19 17:48:00,
2013-06-19 13:54:00,75.6,50.9,30.01,West,273,5.0,12.0,42,0.00,,,0.00,1088,Wunderground v.1.15,2013-06-19 17:54:00,
2013-06-19 14:03:00,76.2,52.7,30.01,NNW,348,5.0,9.0,44,0.00,,,0.00,1056,Wunderground v.1.15,2013-06-19 18:03:00,
2013-06-19 14:14:00,75.8,52.9,30.01,SSW,211,4.0,12.0,45,0.00,,,0.00,1062,Wunderground v.1.15,2013-06-19 18:14:00,
2013-06-19 14:24:00,76.7,51.2,30.02,WSW,255,3.0,13.0,41,0.00,,,0.00,1053,Wunderground v.1.15,2013-06-19 18:24:00,
2013-06-19 14:34:00,76.1,51.3,30.02,North,355,6.0,13.0,42,0.00,,,0.00,983,Wunderground v.1.15,2013-06-19 18:34:00,
2013-06-19 14:44:00,76.0,50.6,30.02,NW,315,5.0,13.0,41,0.00,,,0.00,919,Wunderground v.1.15,2013-06-19 18:44:00,
2013-06-19 14:53:00,76.3,50.2,30.02,NW,322,4.0,13.0,40,0.00,,,0.00,884,Wunderground v.1.15,2013-06-19 18:53:00,
2013-06-19 14:59:00,76.5,49.7,30.02,NNW,331,4.0,4.0,39,0.00,,,0.00,870,Wunderground v.1.15,2013-06-19 18:59:00,
2013-06-19 15:09:00,76.2,49.4,30.02,West,271,4.0,4.0,39,0.00,,,0.00,884,Wunderground v.1.15,2013-06-19 19:09:00,
2013-06-19 15:18:00,76.1,49.3,30.03,West,279,4.0,12.0,39,0.00,,,0.00,833,Wunderground v.1.15,2013-06-19 19:18:00,
2013-06-19 15:24:00,76.1,49.3,30.03,NNW,341,4.0,13.0,39,0.00,,,0.00,816,Wunderground v.1.15,2013-06-19 19:24:00,
2013-06-19 15:34:00,76.6,48.4,30.03,NNE,21,5.0,13.0,37,0.00,,,0.00,796,Wunderground v.1.15,2013-06-19 19:34:00,
2013-06-19 15:44:00,77.0,49.4,30.03,West,259,3.0,13.0,38,0.00,,,0.00,780,Wunderground v.1.15,2013-06-19 19:44:00,
2013-06-19 15:54:00,76.4,48.2,30.03,West,272,3.0,10.0,37,0.00,,,0.00,751,Wunderground v.1.15,2013-06-19 19:54:00,
2013-06-19 16:03:00,73.9,58.7,30.03,SSE,164,5.0,10.0,59,0.00,,,0.00,714,Wunderground v.1.15,2013-06-19 20:03:00,
2013-06-19 16:09:00,73.7,59.4,30.03,South,177,4.0,10.0,61,0.00,,,0.00,705,Wunderground v.1.15,2013-06-19 20:09:00,
2013-06-19 16:19:00,72.1,61.0,30.03,SSW,198,4.0,10.0,68,0.00,,,0.00,680,Wunderground v.1.15,2013-06-19 20:19:00,
2013-06-19 16:28:00,70.8,59.7,30.03,South,187,5.0,11.0,68,0.00,,,0.00,631,Wunderground v.1.15,2013-06-19 20:28:00,
2013-06-19 16:39:00,71.5,60.4,30.03,SE,136,5.0,11.0,68,0.00,,,0.00,643,Wunderground v.1.15,2013-06-19 20:39:00,
2013-06-19 16:48:00,71.5,60.0,30.03,SSE,148,4.0,11.0,67,0.00,,,0.00,141,Wunderground v.1.15,2013-06-19 20:48:00,
2013-06-19 16:59:00,70.3,60.1,30.04,South,180,5.0,13.0,70,0.00,,,0.00,612,Wunderground v.1.15,2013-06-19 20:59:00,
2013-06-19 17:09:00,71.4,60.3,30.03,South,187,5.0,5.0,68,0.00,,,0.00,540,Wunderground v.1.15,2013-06-19 21:09:00,
2013-06-19 17:18:00,70.6,60.3,30.03,SSE,161,5.0,13.0,70,0.00,,,0.00,512,Wunderground v.1.15,2013-06-19 21:18:00,
2013-06-19 17:29:00,69.9,59.7,30.03,South,179,5.0,13.0,70,0.00,,,0.00,482,Wunderground v.1.15,2013-06-19 21:29:00,
2013-06-19 17:38:00,69.4,59.6,30.03,SSW,194,4.0,4.0,71,0.00,,,0.00,432,Wunderground v.1.15,2013-06-19 21:38:00,
2013-06-19 17:49:00,69.7,59.9,30.03,SSW,192,5.0,5.0,71,0.00,,,0.00,403,Wunderground v.1.15,2013-06-19 21:49:00,
2013-06-19 17:59:00,68.8,60.2,30.04,SSW,213,4.0,4.0,74,0.00,,,0.00,107,Wunderground v.1.15,2013-06-19 21:59:00,
2013-06-19 18:08:00,68.9,59.5,30.04,South,184,6.0,6.0,72,0.00,,,0.00,350,Wunderground v.1.15,2013-06-19 22:08:00,
2013-06-19 18:14:00,69.5,60.1,30.05,South,182,5.0,11.0,72,0.00,,,0.00,323,Wunderground v.1.15,2013-06-19 22:14:00,
2013-06-19 18:23:00,69.4,58.4,30.05,SSW,211,6.0,16.0,68,0.00,,,0.00,295,Wunderground v.1.15,2013-06-19 22:23:00,
2013-06-19 18:34:00,69.3,58.3,30.05,SW,224,7.0,16.0,68,0.00,,,0.00,257,Wunderground v.1.15,2013-06-19 22:34:00,
2013-06-19 18:44:00,68.6,58.4,30.06,WSW,242,7.0,16.0,70,0.00,,,0.00,97,Wunderground v.1.15,2013-06-19 22:44:00,
2013-06-19 18:53:00,68.3,58.9,30.06,SW,215,5.0,8.0,72,0.00,,,0.00,200,Wunderground v.1.15,2013-06-19 22:53:00,
2013-06-19 18:59:00,68.1,58.7,30.06,SSW,210,5.0,5.0,72,0.00,,,0.00,174,Wunderground v.1.15,2013-06-19 22:59:00,
2013-06-19 19:14:00,68.1,58.7,30.06,SSW,211,4.0,18.0,72,0.00,,,0.00,125,Wunderground v.1.15,2013-06-19 23:14:00,
2013-06-19 19:24:00,67.5,58.5,30.06,SSW,194,5.0,5.0,73,0.00,,,0.00,93,Wunderground v.1.15,2013-06-19 23:24:00,
2013-06-19 19:34:00,67.1,58.5,30.07,SSE,168,5.0,13.0,74,0.00,,,0.00,69,Wunderground v.1.15,2013-06-19 23:34:00,
2013-06-19 19:43:00,66.7,58.5,30.07,SW,229,3.0,13.0,75,0.00,,,0.00,47,Wunderground v.1.15,2013-06-19 23:43:00,
2013-06-19 19:49:00,66.3,58.9,30.07,SSW,203,4.0,4.0,77,0.00,,,0.00,37,Wunderground v.1.15,2013-06-19 23:49:00,
2013-06-19 19:59:00,65.8,59.1,30.07,SSW,194,4.0,4.0,79,0.00,,,0.00,23,Wunderground v.1.15,2013-06-19 23:59:00,
2013-06-19 20:09:00,65.4,59.4,30.08,SW,215,3.0,3.0,81,0.00,,,0.00,16,Wunderground v.1.15,2013-06-20 00:09:00,
2013-06-19 20:18:00,64.9,59.6,30.08,SW,215,3.0,10.0,83,0.00,,,0.00,9,Wunderground v.1.15,2013-06-20 00:18:00,
2013-06-19 20:29:00,64.6,59.7,30.08,SSW,211,3.0,9.0,84,0.00,,,0.00,0,Wunderground v.1.15,2013-06-20 00:29:00,
2013-06-19 20:39:00,64.4,59.5,30.09,SSW,198,3.0,9.0,84,0.00,,,0.00,0,Wunderground v.1.15,2013-06-20 00:39:00,
2013-06-19 20:48:00,64.1,59.2,30.09,SSW,210,2.0,2.0,84,0.00,,,0.00,0,Wunderground v.1.15,2013-06-20 00:48:00,
2013-06-19 20:54:00,64.1,59.2,30.09,SSW,209,2.0,5.0,84,0.00,,,0.00,0,Wunderground v.1.15,2013-06-20 00:54:00,
2013-06-19 21:04:00,64.0,59.1,30.10,SSW,209,3.0,7.0,84,0.00,,,0.00,0,Wunderground v.1.15,2013-06-20 01:04:00,
2013-06-19 21:14:00,64.0,58.7,30.10,SW,220,3.0,6.0,83,0.00,,,0.00,0,Wunderground v.1.15,2013-06-20 01:14:00,
2013-06-19 21:24:00,63.9,58.6,30.11,SSW,195,3.0,9.0,83,0.00,,,0.00,0,Wunderground v.1.15,2013-06-20 01:24:00,
2013-06-19 21:34:00,63.8,58.5,30.11,SW,221,3.0,9.0,83,0.00,,,0.00,0,Wunderground v.1.15,2013-06-20 01:34:00,
2013-06-19 21:43:00,63.6,58.3,30.11,SSW,203,3.0,9.0,83,0.00,,,0.00,0,Wunderground v.1.15,2013-06-20 01:43:00,
2013-06-19 21:49:00,63.6,58.7,30.11,SW,219,3.0,9.0,84,0.00,,,0.00,0,Wunderground v.1.15,2013-06-20 01:49:00,
2013-06-19 21:58:00,63.5,58.6,30.12,SSW,205,3.0,8.0,84,0.00,,,0.00,0,Wunderground v.1.15,2013-06-20 01:58:00,
2013-06-19 22:09:00,63.2,58.6,30.12,SSW,211,2.0,2.0,85,0.00,,,0.00,0,Wunderground v.1.15,2013-06-20 02:09:00,
2013-06-19 22:19:00,63.1,58.5,30.13,SW,217,2.0,8.0,85,0.00,,,0.00,0,Wunderground v.1.15,2013-06-20 02:19:00,
2013-06-19 22:29:00,63.4,58.1,30.13,SW,223,4.0,4.0,83,0.00,,,0.00,0,Wunderground v.1.15,2013-06-20 02:29:00,
2013-06-19 22:39:00,63.5,57.9,30.12,SSW,198,3.0,3.0,82,0.00,,,0.00,0,Wunderground v.1.15,2013-06-20 02:39:00,
2013-06-19 22:49:00,63.7,58.1,30.13,SW,232,4.0,7.0,82,0.00,,,0.00,0,Wunderground v.1.15,2013-06-20 02:49:00,
2013-06-19 22:54:00,63.8,57.9,30.13,SW,229,4.0,9.0,81,0.00,,,0.00,0,Wunderground v.1.15,2013-06-20 02:54:00,
2013-06-19 22:59:00,64.0,57.7,30.13,SSW,202,5.0,9.0,80,0.00,,,0.00,0,Wunderground v.1.15,2013-06-20 02:59:00,
2013-06-19 23:08:00,64.0,57.4,30.13,SSW,206,4.0,9.0,79,0.00,,,0.00,0,Wunderground v.1.15,2013-06-20 03:08:00,
2013-06-19 23:14:00,64.0,57.4,30.13,SW,220,4.0,9.0,79,0.00,,,0.00,0,Wunderground v.1.15,2013-06-20 03:14:00,
2013-06-19 23:24:00,64.1,57.5,30.14,SSW,213,4.0,6.0,79,0.00,,,0.00,0,Wunderground v.1.15,2013-06-20 03:24:00,
2013-06-19 23:34:00,64.1,57.1,30.14,SW,215,5.0,10.0,78,0.00,,,0.00,0,Wunderground v.1.15,2013-06-20 03:34:00,
2013-06-19 23:44:00,64.1,56.7,30.14,SSW,203,4.0,10.0,77,0.00,,,0.00,0,Wunderground v.1.15,2013-06-20 03:44:00,
2013-06-19 23:53:00,64.4,56.7,30.15,SSW,212,4.0,10.0,76,0.00,,,0.00,0,Wunderground v.1.15,2013-06-20 03:53:00,
2013-06-19 23:59:00,64.3,56.9,30.15,SW,226,3.0,10.0,77,0.00,,,0.00,0,Wunderground v.1.15,2013-06-20 03:59:00,